Terminal Aerodrome Forecast
Issued by NWS Newport/Morehead City, NC

Home | Current Version | Previous Version | Text Only | Print | Product List | Glossary On
Versions: 1 2 3 4 5 6 7 8 9 10 11 12 13 14
000
FTUS42 KMHX 052328
TAFEWN
TAF
KEWN 052328Z 0600/0624 19009KT P6SM SCT250
     FM060700 19003KT P6SM SCT010
     FM061300 21007KT P6SM SCT035
     FM061700 20008KT P6SM VCTS SCT050CB=

USA.gov is the U.S. government's official web portal to all federal, state and local government web resources and services.